createdAt,value
2016-05-22T00:00:55.579Z,16.54
2016-05-22T00:01:55.440Z,16.56
2016-05-22T00:02:55.584Z,16.5
2016-05-22T00:03:55.587Z,16.47
2016-05-22T00:04:55.589Z,16.41
2016-05-22T00:05:55.451Z,16.42
2016-05-22T00:06:55.595Z,16.46
2016-05-22T00:07:55.597Z,16.43
2016-05-22T00:08:55.601Z,16.35
2016-05-22T00:09:55.618Z,16.33
2016-05-22T00:10:55.683Z,16.33
2016-05-22T00:11:55.640Z,16.32
2016-05-22T00:12:55.626Z,16.35
2016-05-22T00:13:55.613Z,16.35
2016-05-22T00:14:55.632Z,16.28
2016-05-22T00:15:55.619Z,16.29
2016-05-22T00:16:55.622Z,16.24
2016-05-22T00:17:55.467Z,16.29
2016-05-22T00:18:55.455Z,16.31
2016-05-22T00:19:55.614Z,16.23
2016-05-22T00:20:55.632Z,16.2
2016-05-22T00:21:55.619Z,16.08
2016-05-22T00:22:55.638Z,16.13
2016-05-22T00:23:55.686Z,16.13
2016-05-22T00:24:55.659Z,16.15
2016-05-22T00:25:55.646Z,16.2
2016-05-22T00:26:55.476Z,16.13
2016-05-22T00:27:55.652Z,16.15
2016-05-22T00:28:55.654Z,16.12
2016-05-22T00:29:55.500Z,16.1
2016-05-22T00:30:55.643Z,16.08
2016-05-22T00:31:55.646Z,16.1
2016-05-22T00:32:55.649Z,16.09
2016-05-22T00:33:55.651Z,16.04
2016-05-22T00:34:55.654Z,16.08
2016-05-22T00:35:55.673Z,16.04
2016-05-22T00:36:55.660Z,16.05
2016-05-22T00:37:55.678Z,16.01
2016-05-22T00:38:55.665Z,16.05
2016-05-22T00:39:55.684Z,16.08
2016-05-22T00:40:55.686Z,16.05
2016-05-22T00:41:55.704Z,16.1
2016-05-22T00:42:55.692Z,15.97
2016-05-22T00:43:55.678Z,15.98
2016-05-22T00:44:55.698Z,15.95
2016-05-22T00:45:55.684Z,15.98
2016-05-22T00:46:55.702Z,15.92
2016-05-22T00:47:55.690Z,16.01
2016-05-22T00:48:55.692Z,15.95
2016-05-22T00:49:55.553Z,15.92
2016-05-22T00:50:55.713Z,16.01
2016-05-22T00:51:55.700Z,16.01
2016-05-22T00:52:55.703Z,16.02
2016-05-22T00:53:55.705Z,16.01
2016-05-22T00:54:55.708Z,16
2016-05-22T00:55:55.695Z,15.95
2016-05-22T00:56:55.729Z,16
2016-05-22T00:57:55.591Z,15.98
2016-05-22T00:58:55.703Z,15.97
2016-05-22T00:59:55.753Z,16
2016-05-22T01:00:55.708Z,15.91
2016-05-22T01:01:55.711Z,15.98
2016-05-22T01:02:55.729Z,15.94
2016-05-22T01:03:55.732Z,15.98
2016-05-22T01:04:55.735Z,15.97
2016-05-22T01:05:55.565Z,15.84
2016-05-22T01:06:55.724Z,15.82
2016-05-22T01:07:55.712Z,15.9
2016-05-22T01:08:55.746Z,15.84
2016-05-22T01:09:55.732Z,15.83
2016-05-22T01:10:55.579Z,15.86
2016-05-22T01:11:55.723Z,15.84
2016-05-22T01:12:55.756Z,15.83
2016-05-22T01:13:55.743Z,15.84
2016-05-22T01:14:55.762Z,15.82
2016-05-22T01:15:55.780Z,15.83
2016-05-22T01:16:55.768Z,15.86
2016-05-22T01:17:55.770Z,15.83
2016-05-22T01:18:55.772Z,15.8
2016-05-22T01:19:55.775Z,15.83
2016-05-22T01:20:55.762Z,15.82
2016-05-22T01:21:55.781Z,15.82
2016-05-22T01:22:55.768Z,15.88
2016-05-22T01:23:55.770Z,15.86
2016-05-22T01:24:55.773Z,15.82
2016-05-22T01:25:55.775Z,15.82
2016-05-22T01:26:55.622Z,15.83
2016-05-22T01:27:55.641Z,15.82
2016-05-22T01:28:55.627Z,15.75
2016-05-22T01:29:55.802Z,15.8
2016-05-22T01:30:55.788Z,15.75
2016-05-22T01:31:55.776Z,15.82
2016-05-22T01:32:55.638Z,15.75
2016-05-22T01:33:55.797Z,15.75
2016-05-22T01:34:55.659Z,15.77
2016-05-22T01:35:55.787Z,15.73
2016-05-22T01:36:55.790Z,15.72
2016-05-22T01:37:55.793Z,15.75
2016-05-22T01:38:55.795Z,15.77
2016-05-22T01:39:55.641Z,15.77
2016-05-22T01:40:55.800Z,15.76
2016-05-22T01:41:55.804Z,15.72
2016-05-22T01:42:55.806Z,15.77
2016-05-22T01:43:55.809Z,15.8
2016-05-22T01:44:55.811Z,15.73
2016-05-22T01:45:55.657Z,15.77
2016-05-22T01:46:55.660Z,15.73
2016-05-22T01:47:55.820Z,15.76
2016-05-22T01:48:55.822Z,15.77
2016-05-22T01:49:55.668Z,15.76
2016-05-22T01:50:55.828Z,15.8
2016-05-22T01:51:55.830Z,15.8
2016-05-22T01:52:55.817Z,15.7
2016-05-22T01:53:55.819Z,15.7
2016-05-22T01:54:55.839Z,15.58
2016-05-22T01:55:55.825Z,15.62
2016-05-22T01:56:55.828Z,15.65
2016-05-22T01:57:55.846Z,15.65
2016-05-22T01:58:55.849Z,15.62
2016-05-22T01:59:55.852Z,15.61
2016-05-22T02:00:55.855Z,15.58
2016-05-22T02:01:55.841Z,15.49
2016-05-22T02:02:55.844Z,15.54
2016-05-22T02:03:55.674Z,15.55
2016-05-22T02:04:55.850Z,15.54
2016-05-22T02:05:55.696Z,15.51
2016-05-22T02:06:55.698Z,15.46
2016-05-22T02:07:55.702Z,15.54
2016-05-22T02:08:55.876Z,15.4
2016-05-22T02:09:55.847Z,15.46
2016-05-22T02:10:55.865Z,15.42
2016-05-22T02:11:55.868Z,15.36
2016-05-22T02:12:56.277Z,15.35
2016-05-22T02:13:55.718Z,15.35
2016-05-22T02:14:55.876Z,15.35
2016-05-22T02:15:55.863Z,15.28
2016-05-22T02:16:55.882Z,15.37
2016-05-22T02:17:55.868Z,15.31
2016-05-22T02:18:55.871Z,15.25
2016-05-22T02:19:55.874Z,15.39
2016-05-22T02:20:55.877Z,15.28
2016-05-22T02:21:55.879Z,15.36
2016-05-22T02:22:55.882Z,15.36
2016-05-22T02:23:55.916Z,15.35
2016-05-22T02:24:55.887Z,15.28
2016-05-22T02:25:55.890Z,15.25
2016-05-22T02:26:55.878Z,15.31
2016-05-22T02:27:55.755Z,15.25
2016-05-22T02:28:55.883Z,15.24
2016-05-22T02:29:55.745Z,15.29
2016-05-22T02:30:55.888Z,15.28
2016-05-22T02:31:55.750Z,15.24
2016-05-22T02:32:55.925Z,15.28
2016-05-22T02:33:55.741Z,15.17
2016-05-22T02:34:55.743Z,15.21
2016-05-22T02:35:55.902Z,15.14
2016-05-22T02:36:55.919Z,15.18
2016-05-22T02:37:55.907Z,15.17
2016-05-22T02:38:55.910Z,15.19
2016-05-22T02:39:55.772Z,15.22
2016-05-22T02:40:55.899Z,15.14
2016-05-22T02:41:55.949Z,15.18
2016-05-22T02:42:55.921Z,15.04
2016-05-22T02:43:55.923Z,15.1
2016-05-22T02:44:55.925Z,15.03
2016-05-22T02:45:55.929Z,14.99
2016-05-22T02:46:55.915Z,15.11
2016-05-22T02:47:55.934Z,15.07
2016-05-22T02:48:55.937Z,15.09
2016-05-22T02:49:55.923Z,15.02
2016-05-22T02:50:55.770Z,15.09
2016-05-22T02:51:55.945Z,15
2016-05-22T02:52:55.775Z,15.07
2016-05-22T02:53:55.934Z,15.02
2016-05-22T02:54:55.937Z,14.96
2016-05-22T02:55:55.939Z,14.97
2016-05-22T02:56:55.770Z,15.09
2016-05-22T02:57:55.976Z,14.96
2016-05-22T02:58:55.947Z,14.97
2016-05-22T02:59:55.935Z,14.94
2016-05-22T03:00:55.938Z,14.97
2016-05-22T03:01:55.800Z,15.06
2016-05-22T03:02:55.802Z,14.92
2016-05-22T03:03:55.773Z,15
2016-05-22T03:04:55.792Z,15
2016-05-22T03:05:55.951Z,14.92
2016-05-22T03:06:55.797Z,15.02
2016-05-22T03:07:55.957Z,14.91
2016-05-22T03:08:55.960Z,14.92
2016-05-22T03:09:55.962Z,14.96
2016-05-22T03:10:55.979Z,14.96
2016-05-22T03:11:55.967Z,14.96
2016-05-22T03:12:56.860Z,14.99
2016-05-22T03:13:55.973Z,14.89
2016-05-22T03:14:55.803Z,14.97
2016-05-22T03:15:55.978Z,14.92
2016-05-22T03:16:55.981Z,14.91
2016-05-22T03:17:55.967Z,14.88
2016-05-22T03:18:55.971Z,14.84
2016-05-22T03:19:55.973Z,14.89
2016-05-22T03:20:55.835Z,14.85
2016-05-22T03:21:55.962Z,14.73
2016-05-22T03:22:55.981Z,14.92
2016-05-22T03:23:55.968Z,14.81
2016-05-22T03:24:56.017Z,14.78
2016-05-22T03:25:55.973Z,14.79
2016-05-22T03:26:56.008Z,14.78
2016-05-22T03:27:56.275Z,14.85
2016-05-22T03:28:55.997Z,14.85
2016-05-22T03:29:55.875Z,14.84
2016-05-22T03:30:56.035Z,14.81
2016-05-22T03:31:56.085Z,14.79
2016-05-22T03:32:56.104Z,14.85
2016-05-22T03:33:56.138Z,14.89
2016-05-22T03:34:56.161Z,14.84
2016-05-22T03:35:56.160Z,14.85
2016-05-22T03:36:56.188Z,14.86
2016-05-22T03:37:56.031Z,14.86
2016-05-22T03:38:56.216Z,14.85
2016-05-22T03:39:56.055Z,14.92
2016-05-22T03:40:56.218Z,14.85
2016-05-22T03:41:56.209Z,14.86
2016-05-22T03:42:56.262Z,14.85
2016-05-22T03:43:56.239Z,14.92
2016-05-22T03:44:56.087Z,14.84
2016-05-22T03:45:56.233Z,14.86
2016-05-22T03:46:56.237Z,14.85
2016-05-22T03:47:56.085Z,14.85
2016-05-22T03:48:56.262Z,14.85
2016-05-22T03:49:56.248Z,14.89
2016-05-22T03:50:56.252Z,14.89
2016-05-22T03:51:56.255Z,15
2016-05-22T03:52:56.258Z,14.96
2016-05-22T03:53:56.261Z,14.97
2016-05-22T03:54:56.264Z,15.02
2016-05-22T03:55:56.267Z,14.99
2016-05-22T03:56:56.253Z,14.97
2016-05-22T03:57:56.553Z,14.97
2016-05-22T03:58:56.258Z,14.96
2016-05-22T03:59:56.105Z,15.06
2016-05-22T04:00:56.264Z,15.03
2016-05-22T04:01:56.267Z,15.06
2016-05-22T04:02:56.269Z,15.06
2016-05-22T04:03:56.288Z,15.04
2016-05-22T04:04:56.274Z,15.11
2016-05-22T04:05:56.262Z,15.14
2016-05-22T04:06:56.281Z,15.15
2016-05-22T04:07:56.268Z,15.27
2016-05-22T04:08:56.270Z,15.22
2016-05-22T04:09:56.288Z,15.22
2016-05-22T04:10:56.276Z,15.33
2016-05-22T04:11:56.279Z,15.28
2016-05-22T04:12:56.376Z,15.37
2016-05-22T04:13:56.128Z,15.37
2016-05-22T04:14:56.286Z,15.46
2016-05-22T04:15:56.273Z,15.55
2016-05-22T04:16:56.276Z,15.54
2016-05-22T04:17:56.295Z,15.55
2016-05-22T04:18:56.298Z,15.51
2016-05-22T04:19:56.301Z,15.58
2016-05-22T04:20:56.302Z,15.54
2016-05-22T04:21:56.321Z,15.59
2016-05-22T04:22:56.308Z,15.65
2016-05-22T04:23:56.373Z,15.73
2016-05-22T04:24:56.361Z,15.8
2016-05-22T04:25:56.332Z,15.92
2016-05-22T04:26:56.334Z,16.08
2016-05-22T04:27:56.322Z,16.1
2016-05-22T04:28:56.340Z,16.28
2016-05-22T04:29:56.327Z,16.47
2016-05-22T04:30:56.330Z,16.5
2016-05-22T04:31:56.316Z,16.5
2016-05-22T04:32:56.179Z,16.54
2016-05-22T04:33:56.322Z,16.54
2016-05-22T04:34:56.324Z,16.51
2016-05-22T04:35:56.327Z,16.43
2016-05-22T04:36:56.330Z,16.33
2016-05-22T04:37:56.333Z,16.24
2016-05-22T04:38:56.335Z,16.26
2016-05-22T04:39:56.338Z,16.17
2016-05-22T04:40:56.340Z,16.16
2016-05-22T04:41:56.359Z,16.15
2016-05-22T04:42:56.393Z,16.04
2016-05-22T04:43:56.349Z,16.04
2016-05-22T04:44:56.211Z,16.02
2016-05-22T04:45:56.385Z,16.12
2016-05-22T04:46:56.217Z,16.17
2016-05-22T04:47:56.359Z,16.21
2016-05-22T04:48:56.393Z,16.42
2016-05-22T04:49:56.381Z,16.61
2016-05-22T04:50:56.228Z,16.74
2016-05-22T04:51:56.073Z,16.83
2016-05-22T04:52:56.389Z,16.93
2016-05-22T04:53:56.391Z,16.99
2016-05-22T04:54:56.394Z,17.22
2016-05-22T04:55:56.397Z,17.3
2016-05-22T04:56:56.243Z,17.51
2016-05-22T04:57:56.261Z,17.76
2016-05-22T04:58:56.420Z,17.83
2016-05-22T04:59:56.408Z,17.8
2016-05-22T05:00:56.269Z,17.71
2016-05-22T05:01:56.272Z,17.56
2016-05-22T05:02:56.290Z,17.52
2016-05-22T05:03:56.418Z,17.51
2016-05-22T05:04:56.436Z,17.6
2016-05-22T05:05:56.502Z,17.72
2016-05-22T05:06:56.363Z,18.01
2016-05-22T05:07:56.304Z,18.16
2016-05-22T05:08:56.447Z,18.2
2016-05-22T05:09:56.465Z,18.26
2016-05-22T05:10:56.469Z,18.31
2016-05-22T05:11:56.471Z,18.47
2016-05-22T05:12:56.739Z,18.43
2016-05-22T05:13:56.304Z,18.58
2016-05-22T05:14:56.323Z,18.44
2016-05-22T05:15:56.481Z,18.29
2016-05-22T05:16:56.485Z,18.31
2016-05-22T05:17:56.346Z,18.62
2016-05-22T05:18:56.505Z,18.8
2016-05-22T05:19:56.508Z,19.21
2016-05-22T05:20:56.526Z,19.39
2016-05-22T05:21:56.529Z,19.24
2016-05-22T05:22:56.532Z,19.14
2016-05-22T05:23:56.379Z,19
2016-05-22T05:24:56.536Z,18.83
2016-05-22T05:25:56.539Z,18.8
2016-05-22T05:26:56.403Z,18.58
2016-05-22T05:27:56.561Z,18.49
2016-05-22T05:28:56.564Z,18.26
2016-05-22T05:29:56.395Z,18.18
2016-05-22T05:30:56.569Z,18.1
2016-05-22T05:31:56.571Z,18.05
2016-05-22T05:32:56.591Z,17.98
2016-05-22T05:33:56.608Z,17.97
2016-05-22T05:34:56.580Z,17.9
2016-05-22T05:35:56.583Z,17.9
2016-05-22T05:36:56.602Z,17.92
2016-05-22T05:37:56.588Z,18.23
2016-05-22T05:38:56.591Z,18.55
2016-05-22T05:39:56.593Z,18.66
2016-05-22T05:40:56.455Z,19.12
2016-05-22T05:41:56.615Z,19.39
2016-05-22T05:42:56.618Z,19.79
2016-05-22T05:43:56.620Z,20.14
2016-05-22T05:44:56.622Z,20.55
2016-05-22T05:45:56.625Z,20.7
2016-05-22T05:46:56.487Z,20.82
2016-05-22T05:47:56.645Z,21.02
2016-05-22T05:48:56.649Z,21.36
2016-05-22T05:49:56.651Z,21.35
2016-05-22T05:50:56.670Z,21.58
2016-05-22T05:51:56.656Z,21.72
2016-05-22T05:52:56.676Z,21.88
2016-05-22T05:53:56.678Z,22.14
2016-05-22T05:54:56.681Z,22.29
2016-05-22T05:55:56.714Z,22.39
2016-05-22T05:56:56.764Z,22.63
2016-05-22T05:57:56.783Z,22.85
2016-05-22T05:58:56.722Z,23.13
2016-05-22T05:59:56.725Z,23.46
2016-05-22T06:00:56.744Z,23.65
2016-05-22T06:01:56.746Z,23.63
2016-05-22T06:02:56.749Z,23.8
2016-05-22T06:03:56.813Z,23.98
2016-05-22T06:04:56.630Z,24.14
2016-05-22T06:05:56.772Z,24.3
2016-05-22T06:06:56.775Z,24.51
2016-05-22T06:07:56.778Z,24.5
2016-05-22T06:08:56.796Z,24.47
2016-05-22T06:09:56.815Z,24.33
2016-05-22T06:10:56.661Z,24.1
2016-05-22T06:11:56.820Z,23.84
2016-05-22T06:12:56.869Z,23.68
2016-05-22T06:13:56.841Z,23.78
2016-05-22T06:14:56.860Z,23.8
2016-05-22T06:15:56.706Z,23.81
2016-05-22T06:16:56.865Z,23.93
2016-05-22T06:17:56.712Z,24.16
2016-05-22T06:18:56.886Z,24.18
2016-05-22T06:19:56.904Z,24.35
2016-05-22T06:20:56.890Z,24.63
2016-05-22T06:21:56.909Z,24.95
2016-05-22T06:22:56.912Z,25.28
2016-05-22T06:23:56.931Z,25.47
2016-05-22T06:24:56.934Z,25.5
2016-05-22T06:25:56.795Z,25.55
2016-05-22T06:26:56.953Z,25.51
2016-05-22T06:27:56.973Z,25.55
2016-05-22T06:28:56.834Z,25.63
2016-05-22T06:29:56.978Z,25.65
2016-05-22T06:30:56.840Z,25.7
2016-05-22T06:31:57.000Z,25.81
2016-05-22T06:32:56.876Z,26.09
2016-05-22T06:33:57.019Z,26.25
2016-05-22T06:34:57.022Z,26.37
2016-05-22T06:35:57.041Z,26.41
2016-05-22T06:36:57.059Z,26.74
2016-05-22T06:37:57.061Z,26.78
2016-05-22T06:38:57.079Z,26.84
2016-05-22T06:39:56.941Z,26.7
2016-05-22T06:40:57.101Z,26.47
2016-05-22T06:41:57.104Z,26.38
2016-05-22T06:42:57.279Z,26.44
2016-05-22T06:43:57.141Z,26.37
2016-05-22T06:44:56.987Z,26.56
2016-05-22T06:45:57.145Z,26.71
2016-05-22T06:46:57.165Z,26.71
2016-05-22T06:47:57.167Z,26.88
2016-05-22T06:48:57.170Z,26.95
2016-05-22T06:49:57.173Z,27.08
2016-05-22T06:50:57.237Z,27.25
2016-05-22T06:51:57.239Z,27.6
2016-05-22T06:52:57.226Z,28.1
2016-05-22T06:53:57.229Z,28.44
2016-05-22T06:54:57.232Z,28.84
2016-05-22T06:55:57.251Z,29.26
2016-05-22T06:56:57.253Z,29.66
2016-05-22T06:57:57.381Z,29.6
2016-05-22T06:58:57.306Z,29.5
2016-05-22T06:59:57.308Z,29.57
2016-05-22T07:00:57.312Z,29.24
2016-05-22T07:01:57.314Z,28.89
2016-05-22T07:02:57.332Z,28.45
2016-05-22T07:03:57.350Z,28.04
2016-05-22T07:04:57.353Z,27.54
2016-05-22T07:05:57.355Z,27.54
2016-05-22T07:06:57.374Z,27.63
2016-05-22T07:07:57.392Z,27.64
2016-05-22T07:08:57.395Z,27.75
2016-05-22T07:09:57.429Z,27.82
2016-05-22T07:10:57.416Z,27.87
2016-05-22T07:11:57.450Z,27.93
2016-05-22T07:12:58.109Z,27.85
2016-05-22T07:13:57.455Z,27.73
2016-05-22T07:14:57.474Z,27.67
2016-05-22T07:15:57.476Z,27.63
2016-05-22T07:16:57.479Z,27.52
2016-05-22T07:17:57.498Z,27.54
2016-05-22T07:18:57.344Z,27.37
2016-05-22T07:19:57.518Z,27.51
2016-05-22T07:20:57.537Z,27.85
2016-05-22T07:21:57.555Z,28.17
2016-05-22T07:22:57.402Z,28.45
2016-05-22T07:23:57.560Z,28.64
2016-05-22T07:24:57.579Z,28.79
2016-05-22T07:25:57.582Z,29.05
2016-05-22T07:26:57.615Z,29.01
2016-05-22T07:27:57.775Z,29.53
2016-05-22T07:28:57.620Z,29.66
2016-05-22T07:29:57.655Z,29.97
2016-05-22T07:30:57.658Z,30.12
2016-05-22T07:31:57.504Z,30.5
2016-05-22T07:32:57.678Z,30.91
2016-05-22T07:33:57.680Z,31.22
2016-05-22T07:34:57.699Z,31.46
2016-05-22T07:35:57.703Z,31.15
2016-05-22T07:36:57.736Z,31.06
2016-05-22T07:37:57.755Z,30.94
2016-05-22T07:38:57.757Z,30.92
2016-05-22T07:39:57.760Z,30.88
2016-05-22T07:40:57.621Z,30.99
2016-05-22T07:41:57.780Z,31.15
2016-05-22T07:42:58.236Z,31.43
2016-05-22T07:43:57.818Z,31.85
2016-05-22T07:44:57.820Z,31.99
2016-05-22T07:45:57.838Z,31.99
2016-05-22T07:46:57.700Z,32
2016-05-22T07:47:57.703Z,32.04
2016-05-22T07:48:57.894Z,32.08
2016-05-22T07:49:57.896Z,32.21
2016-05-22T07:50:57.898Z,32.31
2016-05-22T07:51:57.901Z,32.48
2016-05-22T07:52:57.920Z,32.83
2016-05-22T07:53:57.937Z,33.09
2016-05-22T07:54:57.957Z,33.3
2016-05-22T07:55:57.818Z,32.67
2016-05-22T07:56:57.961Z,32.03
2016-05-22T07:57:58.590Z,31.31
2016-05-22T07:58:58.014Z,31.06
2016-05-22T07:59:58.016Z,30.97
2016-05-22T08:00:58.020Z,31.07
2016-05-22T08:01:58.038Z,31.1
2016-05-22T08:02:58.056Z,31.34
2016-05-22T08:03:57.917Z,31.52
2016-05-22T08:04:58.078Z,31.64
2016-05-22T08:05:58.080Z,31.85
2016-05-22T08:06:58.097Z,31.92
2016-05-22T08:07:58.116Z,32.09
2016-05-22T08:08:58.119Z,32.04
2016-05-22T08:09:58.138Z,31.94
2016-05-22T08:10:58.156Z,31.93
2016-05-22T08:11:58.174Z,31.81
2016-05-22T08:12:58.224Z,31.81
2016-05-22T08:13:58.194Z,31.94
2016-05-22T08:14:58.213Z,31.97
2016-05-22T08:15:58.231Z,31.97
2016-05-22T08:16:58.062Z,32.29
2016-05-22T08:17:58.237Z,32.21
2016-05-22T08:18:58.255Z,32.18
2016-05-22T08:19:58.273Z,32.19
2016-05-22T08:20:58.292Z,32.15
2016-05-22T08:21:58.295Z,32.29
2016-05-22T08:22:58.313Z,32.34
2016-05-22T08:23:58.159Z,32.18
2016-05-22T08:24:58.334Z,32.29
2016-05-22T08:25:58.368Z,32.33
2016-05-22T08:26:58.354Z,32.53
2016-05-22T08:27:58.232Z,32.43
2016-05-22T08:28:58.376Z,32.6
2016-05-22T08:29:58.395Z,32.73
2016-05-22T08:30:58.412Z,32.75
2016-05-22T08:31:58.431Z,32.9
2016-05-22T08:32:58.292Z,33.07
2016-05-22T08:33:58.453Z,33.14
2016-05-22T08:34:58.470Z,33.17
2016-05-22T08:35:58.489Z,33.04
2016-05-22T08:36:58.335Z,32.7
2016-05-22T08:37:58.353Z,32.49
2016-05-22T08:38:58.527Z,32.26
2016-05-22T08:39:58.531Z,32
2016-05-22T08:40:58.439Z,31.8
2016-05-22T08:41:58.552Z,31.61
2016-05-22T08:42:59.413Z,31.85
2016-05-22T08:43:58.588Z,31.77
2016-05-22T08:44:58.591Z,32.12
2016-05-22T08:45:58.610Z,32.21
2016-05-22T08:46:58.471Z,32.34
2016-05-22T08:47:58.490Z,32.31
2016-05-22T08:48:58.648Z,32.16
2016-05-22T08:49:58.666Z,31.84
2016-05-22T08:50:58.669Z,31.52
2016-05-22T08:51:58.531Z,30.87
2016-05-22T08:52:58.706Z,30.21
2016-05-22T08:53:58.724Z,29.75
2016-05-22T08:54:58.759Z,29.34
2016-05-22T08:55:58.776Z,29.02
2016-05-22T08:56:58.748Z,28.7
2016-05-22T08:57:58.642Z,28.54
2016-05-22T08:58:58.784Z,28.23
2016-05-22T08:59:58.787Z,28.07
2016-05-22T09:00:58.649Z,27.8
2016-05-22T09:01:58.823Z,27.78
2016-05-22T09:02:58.842Z,27.6
2016-05-22T09:03:58.845Z,27.58
2016-05-22T09:04:58.847Z,27.54
2016-05-22T09:05:58.881Z,27.54
2016-05-22T09:06:58.884Z,27.51
2016-05-22T09:07:58.887Z,27.54
2016-05-22T09:08:58.889Z,27.48
2016-05-22T09:09:58.924Z,27.47
2016-05-22T09:10:58.770Z,27.37
2016-05-22T09:11:58.788Z,27.45
2016-05-22T09:12:59.260Z,27.47
2016-05-22T09:13:58.950Z,27.51
2016-05-22T09:14:58.953Z,27.58
2016-05-22T09:15:58.971Z,27.58
2016-05-22T09:16:58.988Z,27.58
2016-05-22T09:17:58.991Z,27.49
2016-05-22T09:18:58.994Z,27.55
2016-05-22T09:19:59.013Z,27.54
2016-05-22T09:20:58.859Z,27.64
2016-05-22T09:21:59.049Z,27.52
2016-05-22T09:22:59.037Z,27.55
2016-05-22T09:23:59.071Z,27.59
2016-05-22T09:24:59.057Z,27.54
2016-05-22T09:25:59.060Z,27.52
2016-05-22T09:26:59.079Z,27.52
2016-05-22T09:27:59.097Z,27.42
2016-05-22T09:28:59.100Z,27.42
2016-05-22T09:29:59.118Z,27.35
2016-05-22T09:30:59.106Z,27.2
2016-05-22T09:31:58.968Z,27.14
2016-05-22T09:32:58.970Z,26.95
2016-05-22T09:33:58.972Z,26.93
2016-05-22T09:34:58.991Z,26.81
2016-05-22T09:35:59.150Z,26.83
2016-05-22T09:36:59.167Z,26.84
2016-05-22T09:37:59.014Z,26.99
2016-05-22T09:38:59.189Z,26.96
2016-05-22T09:39:59.192Z,27.12
2016-05-22T09:40:59.194Z,27.42
2016-05-22T09:41:59.197Z,27.49
2016-05-22T09:42:58.903Z,27.71
2016-05-22T09:43:59.233Z,27.6
2016-05-22T09:44:59.236Z,27.64
2016-05-22T09:45:59.239Z,27.55
2016-05-22T09:46:59.258Z,27.45
2016-05-22T09:47:59.260Z,27.52
2016-05-22T09:48:59.122Z,27.58
2016-05-22T09:49:59.125Z,27.65
2016-05-22T09:50:59.284Z,27.55
2016-05-22T09:51:59.318Z,27.48
2016-05-22T09:52:59.305Z,27.48
2016-05-22T09:53:59.324Z,27.42
2016-05-22T09:54:59.326Z,27.4
2016-05-22T09:55:59.329Z,27.4
2016-05-22T09:56:59.346Z,27.25
2016-05-22T09:57:59.787Z,27.27
2016-05-22T09:58:59.352Z,27.1
2016-05-22T09:59:59.370Z,27.11
2016-05-22T10:00:59.373Z,27.11
2016-05-22T10:01:59.251Z,27.11
2016-05-22T10:02:59.237Z,27.32
2016-05-22T10:03:59.240Z,27.47
2016-05-22T10:04:59.400Z,27.48
2016-05-22T10:05:59.418Z,27.47
2016-05-22T10:06:59.437Z,27.39
2016-05-22T10:07:59.423Z,27.39
2016-05-22T10:08:59.442Z,27.36
2016-05-22T10:09:59.444Z,27.4
2016-05-22T10:10:59.291Z,27.44
2016-05-22T10:11:59.481Z,27.4
2016-05-22T10:12:59.468Z,27.32
2016-05-22T10:13:59.486Z,27.18
2016-05-22T10:14:59.489Z,27.11
2016-05-22T10:15:59.335Z,27.11
2016-05-22T10:16:59.511Z,27.29
2016-05-22T10:17:59.512Z,27.25
2016-05-22T10:18:59.531Z,27.17
2016-05-22T10:19:59.518Z,27.27
2016-05-22T10:20:59.536Z,27.3
2016-05-22T10:21:59.539Z,27.27
2016-05-22T10:22:59.557Z,27.17
2016-05-22T10:23:59.576Z,27.08
2016-05-22T10:24:59.251Z,27.1
2016-05-22T10:25:59.581Z,27.17
2016-05-22T10:26:59.443Z,27.26
2016-05-22T10:27:59.743Z,27.32
2016-05-22T10:28:59.323Z,27.35
2016-05-22T10:29:59.607Z,27.47
2016-05-22T10:30:59.625Z,27.54
2016-05-22T10:31:59.629Z,27.47
2016-05-22T10:32:59.632Z,27.55
2016-05-22T10:33:59.650Z,27.59
2016-05-22T10:34:59.668Z,27.68
2016-05-22T10:35:59.515Z,27.7
2016-05-22T10:36:59.533Z,27.77
2016-05-22T10:37:59.536Z,27.85
2016-05-22T10:38:59.538Z,27.87
2016-05-22T10:39:59.697Z,27.98
2016-05-22T10:40:59.700Z,27.93
2016-05-22T10:41:59.718Z,27.75
2016-05-22T10:42:59.767Z,27.92
2016-05-22T10:43:59.567Z,27.78
2016-05-22T10:44:59.757Z,27.86
2016-05-22T10:45:59.761Z,28.01
2016-05-22T10:46:59.762Z,28.07
2016-05-22T10:47:59.780Z,28.1
2016-05-22T10:48:59.627Z,28.19
2016-05-22T10:49:59.786Z,28.27
2016-05-22T10:50:59.789Z,28.44
2016-05-22T10:51:59.823Z,28.64
2016-05-22T10:52:59.810Z,28.57
2016-05-22T10:53:59.813Z,28.52
2016-05-22T10:54:59.847Z,28.48
2016-05-22T10:55:59.835Z,28.59
2016-05-22T10:56:59.711Z,28.59
2016-05-22T10:58:00.698Z,28.59
2016-05-22T10:59:00.404Z,28.74
2016-05-22T10:59:59.876Z,28.7
2016-05-22T11:00:59.879Z,28.7
2016-05-22T11:01:59.881Z,28.7
2016-05-22T11:02:59.759Z,28.56
2016-05-22T11:03:59.918Z,28.44
2016-05-22T11:04:59.984Z,28.26
2016-05-22T11:05:59.923Z,28.44
2016-05-22T11:06:59.941Z,28.3
2016-05-22T11:07:59.787Z,28.38
2016-05-22T11:08:59.962Z,28.38
2016-05-22T11:09:59.980Z,28.41
2016-05-22T11:10:59.828Z,28.42
2016-05-22T11:11:59.814Z,28.33
2016-05-22T11:13:00.020Z,28.23
2016-05-22T11:13:59.850Z,28.07
2016-05-22T11:15:00.010Z,28.02
2016-05-22T11:16:00.013Z,28.1
2016-05-22T11:17:00.031Z,28.08
2016-05-22T11:18:00.049Z,28.15
2016-05-22T11:19:00.052Z,28.17
2016-05-22T11:19:59.898Z,28.17
2016-05-22T11:21:00.072Z,28.17
2016-05-22T11:22:00.075Z,28.26
2016-05-22T11:23:00.078Z,28.33
2016-05-22T11:24:00.081Z,28.41
2016-05-22T11:25:00.099Z,28.51
2016-05-22T11:26:00.102Z,28.42
2016-05-22T11:27:00.136Z,28.38
2016-05-22T11:28:00.279Z,28.12
2016-05-22T11:29:00.266Z,28.07
2016-05-22T11:30:00.143Z,28
2016-05-22T11:31:00.146Z,27.95
2016-05-22T11:32:00.149Z,27.93
2016-05-22T11:33:00.184Z,27.86
2016-05-22T11:34:00.187Z,27.89
2016-05-22T11:35:00.235Z,27.95
2016-05-22T11:36:00.035Z,27.83
2016-05-22T11:37:00.195Z,27.71
2016-05-22T11:38:00.212Z,27.83
2016-05-22T11:38:59.918Z,27.78
2016-05-22T11:40:00.077Z,28.01
2016-05-22T11:41:00.251Z,28.12
2016-05-22T11:42:00.239Z,28.15
2016-05-22T11:43:00.367Z,28.2
2016-05-22T11:43:59.963Z,28.14
2016-05-22T11:45:00.278Z,28.29
2016-05-22T11:46:00.281Z,28.41
2016-05-22T11:47:00.284Z,28.44
2016-05-22T11:48:00.302Z,28.42
2016-05-22T11:49:00.304Z,28.45
2016-05-22T11:50:00.323Z,28.52
2016-05-22T11:51:00.325Z,28.48
2016-05-22T11:52:00.328Z,28.57
2016-05-22T11:53:00.222Z,28.54
2016-05-22T11:54:00.349Z,28.57
2016-05-22T11:55:00.211Z,28.47
2016-05-22T11:56:00.355Z,28.44
2016-05-22T11:57:00.373Z,28.39
2016-05-22T11:58:00.641Z,28.39
2016-05-22T11:59:00.878Z,28.39
2016-05-22T12:00:00.240Z,28.39
2016-05-22T12:01:00.415Z,28.38
2016-05-22T12:02:00.433Z,28.48
2016-05-22T12:03:00.421Z,28.59
2016-05-22T12:04:00.438Z,28.69
2016-05-22T12:05:00.348Z,28.69
2016-05-22T12:06:00.459Z,28.62
2016-05-22T12:07:00.462Z,28.74
2016-05-22T12:08:00.481Z,28.85
2016-05-22T12:09:00.326Z,28.93
2016-05-22T12:10:00.329Z,29.08
2016-05-22T12:11:00.551Z,29.27
2016-05-22T12:12:00.507Z,29.24
2016-05-22T12:13:00.588Z,29.26
2016-05-22T12:14:00.558Z,29.22
2016-05-22T12:15:00.406Z,28.97
2016-05-22T12:16:00.564Z,29.01
2016-05-22T12:17:00.552Z,29.04
2016-05-22T12:18:00.570Z,29.04
2016-05-22T12:19:00.572Z,29.02
2016-05-22T12:20:00.591Z,28.98
2016-05-22T12:21:00.468Z,28.98
2016-05-22T12:22:00.596Z,29.01
2016-05-22T12:23:00.458Z,29.04
2016-05-22T12:24:00.461Z,28.98
2016-05-22T12:25:00.355Z,29.08
2016-05-22T12:26:00.655Z,29.19
2016-05-22T12:27:00.485Z,29.22
2016-05-22T12:28:00.534Z,29.38
2016-05-22T12:29:00.662Z,29.49
2016-05-22T12:30:00.524Z,29.54
2016-05-22T12:31:00.714Z,29.45
2016-05-22T12:32:00.701Z,29.38
2016-05-22T12:33:00.704Z,29.31
2016-05-22T12:34:00.722Z,29.36
2016-05-22T12:35:00.725Z,29.32
2016-05-22T12:36:00.741Z,29.23
2016-05-22T12:37:00.780Z,29.04
2016-05-22T12:38:00.663Z,28.97
2016-05-22T12:39:00.841Z,28.91
2016-05-22T12:40:01.160Z,28.89
2016-05-22T12:41:00.924Z,28.88
2016-05-22T12:42:00.902Z,29.02
2016-05-22T12:43:00.928Z,29.02
2016-05-22T12:44:01.546Z,29.05
2016-05-22T12:45:00.978Z,29.12
2016-05-22T12:46:00.969Z,29.16
2016-05-22T12:47:00.990Z,29.05
2016-05-22T12:48:01.261Z,29.1
2016-05-22T12:49:01.001Z,29.05
2016-05-22T12:50:00.896Z,29.01
2016-05-22T12:51:01.026Z,29.12
2016-05-22T12:52:01.029Z,29.12
2016-05-22T12:53:01.049Z,29.12
2016-05-22T12:54:01.052Z,29.04
2016-05-22T12:55:01.056Z,29.12
2016-05-22T12:56:01.074Z,29.17
2016-05-22T12:57:01.077Z,29.27